KCMY

Details ICAO KCMY
Name Sparta Fort Mc Coy
Region United States
Timezone America/Chicago (UTC-6.0)
Plans Departing 2
Arriving 0
Stats Elevation 837 ft / 255 m (AMSL)
Location 43.958289° -90.737908°
Runways 2
Magnetic Variation 1.740° W
Sunrise 2017-12-18 13:34:10 UTC / 2017-12-18 07:34:10 Local
Sunset 2017-12-18 22:27:55 UTC / 2017-12-18 16:27:55 Local
Advertisement - Login to hide

Runways

ID Width Length Bearing (true) Bearing (mag) Surface Threshold Offset Overrun Length
01 50 ft / 15 m 4,315 ft / 1,315 m 15.29° 17.03° Asphalt 1,375 ft / 419 m 0 ft / 0 m
11 100 ft / 30 m 4,700 ft / 1,433 m 112.22° 113.96° Asphalt 0 ft / 0 m 0 ft / 0 m
19 50 ft / 15 m 4,315 ft / 1,315 m 195.30° 197.04° Asphalt 0 ft / 0 m 0 ft / 0 m
29 100 ft / 30 m 4,700 ft / 1,433 m 292.23° 293.97° Asphalt 425 ft / 130 m 0 ft / 0 m

Map

Weather


0- 5 10 15 20 25 30 35+ Temperature / ° C

Clouds and Precipitation
Forecast for 2017-12-18 12:00 UTC. Updated 2 minutes ago

Ground ~20,000 ft ~40,000 ft Winds

METAR

KCMY 181115Z AUTO 26004KT 4SM BR OVC006 M02/M02 A2989 RMK AO2 T10201022

TAF

Not found

Frequencies

Recorded 118.37 MHz AWOS 3
Tower 124.60 MHz TWR
Unicom 124.60 MHz CTAF
Approach 135.25 MHz VOLK APP/DEP
Warning: Do not use this data for real-world aviation or navigation. No guarantee of current accuracy is given.